createdAt,value
2022-08-12T00:00:27.569Z,100642.66
2022-08-12T00:04:47.653Z,100634.09
2022-08-12T00:09:08.082Z,100642.88
2022-08-12T00:13:28.967Z,100642.00
2022-08-12T00:17:49.142Z,100646.41
2022-08-12T00:22:09.551Z,100639.44
2022-08-12T00:26:33.016Z,100647.31
2022-08-12T00:30:54.892Z,100643.88
2022-08-12T00:35:14.956Z,100648.28
2022-08-12T00:39:36.139Z,100645.78
2022-08-12T00:43:38.273Z,100647.75
2022-08-12T00:47:40.998Z,100649.56
2022-08-12T00:52:02.181Z,100649.56
2022-08-12T00:56:05.654Z,100649.59
2022-08-12T01:00:10.835Z,100658.28
2022-08-12T01:04:45.592Z,100649.56
2022-08-12T01:09:05.947Z,100650.44
2022-08-12T01:13:18.808Z,100657.38
2022-08-12T01:17:22.727Z,100661.72
2022-08-12T01:21:27.015Z,100648.63
2022-08-12T01:25:32.237Z,100646.00
2022-08-12T01:29:37.254Z,100645.94
2022-08-12T01:34:04.114Z,100639.84
2022-08-12T01:38:11.766Z,100639.81
2022-08-12T01:42:16.824Z,100637.19
2022-08-12T01:46:56.642Z,100639.81
2022-08-12T01:52:14.770Z,100638.09
2022-08-12T01:55:43.290Z,100643.28
2022-08-12T01:59:50.400Z,100647.59
2022-08-12T02:04:28.265Z,100638.06
2022-08-12T02:09:00.908Z,100638.91
2022-08-12T02:13:10.133Z,100631.06
2022-08-12T02:17:57.083Z,100622.38
2022-08-12T02:22:07.195Z,100628.53
2022-08-12T02:26:09.721Z,100625.88
2022-08-12T02:30:15.129Z,100630.25
2022-08-12T02:34:17.617Z,100641.66
2022-08-12T02:38:21.640Z,100638.31
2022-08-12T02:42:24.981Z,100645.44
2022-08-12T02:46:32.374Z,100636.06
2022-08-12T02:50:36.725Z,100640.47
2022-08-12T02:54:40.928Z,100647.47
2022-08-12T02:58:45.401Z,100644.91
2022-08-12T03:02:47.212Z,100649.28
2022-08-12T03:06:57.822Z,100639.75
2022-08-12T03:11:14.572Z,100648.47
2022-08-12T03:15:22.348Z,100656.31
2022-08-12T03:19:24.729Z,100652.88
2022-08-12T03:23:30.823Z,100661.63
2022-08-12T03:27:33.080Z,100660.78
2022-08-12T03:31:34.685Z,100664.31
2022-08-12T03:35:41.035Z,100668.66
2022-08-12T03:39:45.458Z,100667.75
2022-08-12T03:44:14.962Z,100671.25
2022-08-12T03:48:35.158Z,100672.13
2022-08-12T03:52:55.340Z,100666.09
2022-08-12T03:57:15.689Z,100679.94
2022-08-12T04:01:19.752Z,100686.88
2022-08-12T04:05:22.987Z,100691.16
2022-08-12T04:09:25.127Z,100693.72
2022-08-12T04:13:26.716Z,100695.47
2022-08-12T04:17:28.937Z,100697.22
2022-08-12T04:21:32.812Z,100697.28
2022-08-12T04:25:39.359Z,100697.25
2022-08-12T04:30:29.015Z,100692.06
2022-08-12T04:34:04.616Z,100692.03
2022-08-12T04:38:07.330Z,100699.00
2022-08-12T04:42:08.903Z,100699.88
2022-08-12T04:46:11.274Z,100699.00
2022-08-12T04:50:33.955Z,100695.53
2022-08-12T04:54:35.939Z,100687.72
2022-08-12T04:58:38.759Z,100692.06
2022-08-12T05:02:40.626Z,100705.06
2022-08-12T05:06:42.611Z,100694.69
2022-08-12T05:10:48.661Z,100700.75
2022-08-12T05:14:50.496Z,100699.88
2022-08-12T05:18:52.670Z,100692.97
2022-08-12T05:23:12.725Z,100703.34
2022-08-12T05:27:15.241Z,100700.75
2022-08-12T05:31:47.309Z,100704.22
2022-08-12T05:35:41.730Z,100705.09
2022-08-12T05:39:43.359Z,100715.50
2022-08-12T05:43:47.059Z,100717.22
2022-08-12T05:47:53.859Z,100727.66
2022-08-12T05:51:57.264Z,100729.38
2022-08-12T05:55:58.926Z,100739.81
2022-08-12T06:00:00.512Z,100738.09
2022-08-12T06:04:02.187Z,100738.09
2022-08-12T06:08:07.334Z,100748.50
2022-08-12T06:12:09.206Z,100739.81
2022-08-12T06:16:12.735Z,100755.41
2022-08-12T06:20:22.848Z,100747.59
2022-08-12T06:24:31.317Z,100743.25
2022-08-12T06:28:32.981Z,100746.75
2022-08-12T06:32:34.680Z,100748.47
2022-08-12T06:36:37.155Z,100742.41
2022-08-12T06:40:57.804Z,100738.06
2022-08-12T06:44:59.467Z,100738.03
2022-08-12T06:49:01.118Z,100732.81
2022-08-12T06:53:05.410Z,100739.75
2022-08-12T06:58:05.549Z,100738.81
2022-08-12T07:01:31.328Z,100723.13
2022-08-12T07:05:33.166Z,100729.09
2022-08-12T07:10:06.762Z,100722.09
2022-08-12T07:14:11.729Z,100722.84
2022-08-12T07:18:18.517Z,100726.25
2022-08-12T07:22:23.039Z,100730.47
2022-08-12T07:26:24.724Z,100721.66
2022-08-12T07:30:30.572Z,100722.38
2022-08-12T07:34:32.209Z,100728.34
2022-08-12T07:38:38.668Z,100723.91
2022-08-12T07:42:41.649Z,100722.03
2022-08-12T07:46:43.776Z,100721.06
2022-08-12T07:50:45.291Z,100720.03
2022-08-12T07:54:46.869Z,100725.09
2022-08-12T07:58:48.527Z,100714.50
2022-08-12T08:02:53.373Z,100716.03
2022-08-12T08:06:55.105Z,100716.72
2022-08-12T08:11:18.214Z,100706.06
2022-08-12T08:15:33.717Z,100712.91
2022-08-12T08:20:03.181Z,100705.69
2022-08-12T08:24:14.551Z,100706.34
2022-08-12T08:28:21.189Z,100702.69
2022-08-12T08:32:24.487Z,100714.72
2022-08-12T08:36:26.065Z,100710.16
2022-08-12T08:40:47.595Z,100700.34
2022-08-12T08:44:50.372Z,100699.19
2022-08-12T08:49:01.347Z,100694.63
2022-08-12T08:53:02.964Z,100697.03
2022-08-12T08:57:08.151Z,100696.81
2022-08-12T09:01:09.781Z,100691.34
2022-08-12T09:05:15.675Z,100687.63
2022-08-12T09:09:18.660Z,100685.63
2022-08-12T09:14:10.927Z,100681.91
2022-08-12T09:17:55.957Z,100680.81
2022-08-12T09:26:22.796Z,100661.09
2022-08-12T09:30:42.028Z,100673.09
2022-08-12T09:34:45.749Z,100657.13
2022-08-12T09:38:59.164Z,100648.97
2022-08-12T09:43:21.883Z,100640.84
2022-08-12T09:47:29.694Z,100645.09
2022-08-12T09:51:38.292Z,100636.25
2022-08-12T09:56:06.553Z,100632.44
2022-08-12T10:00:28.356Z,100627.81
2022-08-12T10:04:32.146Z,100624.88
2022-08-12T10:08:36.659Z,100613.22
2022-08-12T10:13:07.501Z,100615.66
2022-08-12T10:17:16.719Z,100603.19
2022-08-12T10:21:36.119Z,100604.75
2022-08-12T10:26:35.959Z,100603.72
2022-08-12T10:30:40.712Z,100577.19
2022-08-12T10:34:53.043Z,100580.38
2022-08-12T10:38:56.494Z,100578.25
2022-08-12T10:43:17.117Z,100575.31
2022-08-12T10:48:01.195Z,100573.22
2022-08-12T10:52:03.815Z,100566.81
2022-08-12T10:56:08.070Z,100560.38
2022-08-12T11:00:30.649Z,100557.47
2022-08-12T11:04:45.617Z,100552.00
2022-08-12T11:08:51.899Z,100551.78
2022-08-12T11:12:59.564Z,100546.16
2022-08-12T11:17:34.898Z,100551.09
2022-08-12T11:21:51.085Z,100545.50
2022-08-12T11:25:57.733Z,100537.34
2022-08-12T11:30:05.856Z,100535.28
2022-08-12T11:34:51.919Z,100528.81
2022-08-12T11:38:29.835Z,100526.75
2022-08-12T11:42:32.480Z,100512.66
2022-08-12T11:46:41.225Z,100517.88
2022-08-12T11:50:43.856Z,100507.84
2022-08-12T11:54:50.995Z,100515.28
2022-08-12T12:01:58.385Z,100505.13
2022-08-12T12:03:17.374Z,100500.34
2022-08-12T12:07:19.100Z,100504.38
2022-08-12T12:11:22.297Z,100500.50
2022-08-12T12:15:25.259Z,100491.50
2022-08-12T12:19:45.306Z,100484.06
2022-08-12T12:23:48.017Z,100479.13
2022-08-12T12:28:03.950Z,100476.97
2022-08-12T12:32:11.676Z,100479.03
2022-08-12T12:36:20.562Z,100467.97
2022-08-12T12:40:29.847Z,100467.38
2022-08-12T12:44:41.908Z,100457.19
2022-08-12T12:48:52.376Z,100456.94
2022-08-12T12:52:54.620Z,100460.22
2022-08-12T12:56:58.719Z,100436.72
2022-08-12T13:01:04.690Z,100435.88
2022-08-12T13:05:29.112Z,100438.63
2022-08-12T13:09:36.435Z,100427.34
2022-08-12T13:14:07.188Z,100426.31
2022-08-12T13:18:04.882Z,100431.47
2022-08-12T13:22:18.624Z,100427.78
2022-08-12T13:26:20.776Z,100429.41
2022-08-12T13:30:23.819Z,100433.03
2022-08-12T13:34:33.321Z,100429.09
2022-08-12T13:38:42.016Z,100420.50
2022-08-12T13:42:48.709Z,100423.31
2022-08-12T13:46:58.113Z,100420.50
2022-08-12T13:51:00.596Z,100422.13
2022-08-12T13:55:06.519Z,100420.25
2022-08-12T13:59:08.604Z,100414.19
2022-08-12T14:03:12.484Z,100404.81
2022-08-12T14:07:14.159Z,100397.47
2022-08-12T14:11:19.450Z,100397.78
2022-08-12T14:15:36.936Z,100398.44
2022-08-12T14:20:00.647Z,100398.69
2022-08-12T14:24:11.108Z,100395.44
2022-08-12T14:28:18.169Z,100385.16
2022-08-12T14:32:21.522Z,100374.53
2022-08-12T14:36:26.390Z,100371.31
2022-08-12T14:40:29.467Z,100362.44
2022-08-12T14:44:57.330Z,100364.06
2022-08-12T14:48:54.433Z,100368.69
2022-08-12T14:57:23.890Z,100352.22
2022-08-12T15:01:45.150Z,100350.97
2022-08-12T15:06:06.554Z,100356.69
2022-08-12T15:10:13.338Z,100356.31
2022-08-12T15:14:15.334Z,100354.69
2022-08-12T15:18:22.688Z,100355.28
2022-08-12T15:22:37.871Z,100355.34
2022-08-12T15:26:46.577Z,100350.28
2022-08-12T15:30:52.056Z,100361.34
2022-08-12T15:34:54.908Z,100356.44
2022-08-12T15:38:57.544Z,100348.97
2022-08-12T15:43:00.177Z,100358.56
2022-08-12T15:47:04.291Z,100351.53
2022-08-12T15:51:06.043Z,100353.00
2022-08-12T15:55:14.071Z,100346.94
2022-08-12T15:59:20.330Z,100359.47
2022-08-12T16:03:46.016Z,100354.69
2022-08-12T16:08:00.747Z,100349.81
2022-08-12T16:12:03.711Z,100339.44
2022-08-12T16:16:22.937Z,100334.63
2022-08-12T16:20:33.062Z,100340.03
2022-08-12T16:24:39.170Z,100339.47
2022-08-12T16:28:47.606Z,100334.22
2022-08-12T16:32:52.891Z,100330.19
2022-08-12T16:37:00.051Z,100343.06
2022-08-12T16:41:01.648Z,100337.53
2022-08-12T16:45:03.417Z,100339.63
2022-08-12T16:49:13.146Z,100339.31
2022-08-12T16:53:18.822Z,100333.75
2022-08-12T16:57:34.961Z,100340.28
2022-08-12T17:01:49.514Z,100340.44
2022-08-12T17:05:53.440Z,100338.03
2022-08-12T17:09:56.948Z,100325.97
2022-08-12T17:13:59.522Z,100345.56
2022-08-12T17:18:42.185Z,100340.34
2022-08-12T17:22:36.601Z,100341.44
2022-08-12T17:26:40.037Z,100339.94
2022-08-12T17:30:43.542Z,100335.81
2022-08-12T17:35:03.905Z,100337.88
2022-08-12T17:39:09.308Z,100342.81
2022-08-12T17:43:56.047Z,100341.91
2022-08-12T17:47:36.365Z,100338.84
2022-08-12T17:51:49.924Z,100335.50
2022-08-12T17:55:52.552Z,100345.16
2022-08-12T17:59:56.983Z,100351.34
2022-08-12T18:04:20.926Z,100346.94
2022-08-12T18:08:22.021Z,100361.13
2022-08-12T18:12:50.954Z,100355.91
2022-08-12T18:16:55.259Z,100374.06
2022-08-12T18:20:57.551Z,100375.44
2022-08-12T18:25:06.494Z,100377.69
2022-08-12T18:29:09.938Z,100376.50
2022-08-12T18:33:12.697Z,100377.84
2022-08-12T18:37:26.702Z,100386.28
2022-08-12T18:41:39.555Z,100381.50
2022-08-12T18:45:57.575Z,100384.50
2022-08-12T18:50:00.019Z,100383.13
2022-08-12T18:54:06.616Z,100386.13
2022-08-12T18:58:11.528Z,100397.09
2022-08-12T19:02:21.956Z,100399.19
2022-08-12T19:06:25.040Z,100395.19
2022-08-12T19:10:31.997Z,100398.25
2022-08-12T19:14:38.139Z,100402.06
2022-08-12T19:18:44.913Z,100399.78
2022-08-12T19:23:01.997Z,100409.69
2022-08-12T19:27:09.974Z,100410.94
2022-08-12T19:31:56.176Z,100407.78
2022-08-12T19:36:24.261Z,100403.81
2022-08-12T19:40:32.339Z,100406.69
2022-08-12T19:44:37.732Z,100404.34
2022-08-12T19:48:40.999Z,100408.06
2022-08-12T19:52:44.893Z,100422.25
2022-08-12T19:56:50.567Z,100416.38
2022-08-12T20:00:54.438Z,100417.41
2022-08-12T20:06:03.592Z,100429.88
2022-08-12T20:09:19.018Z,100426.56
2022-08-12T20:13:26.740Z,100422.41
2022-08-12T20:17:30.590Z,100431.41
2022-08-12T20:21:41.085Z,100428.91
2022-08-12T20:25:57.909Z,100431.78
2022-08-12T20:30:06.182Z,100439.91
2022-08-12T20:34:07.788Z,100433.03
2022-08-12T20:38:26.827Z,100441.13
2022-08-12T20:42:31.481Z,100435.97
2022-08-12T20:46:33.160Z,100437.84
2022-08-12T20:50:36.503Z,100443.19
2022-08-12T20:54:40.342Z,100442.41
2022-08-12T20:58:42.960Z,100442.47
2022-08-12T21:02:49.787Z,100440.81
2022-08-12T21:07:08.389Z,100455.78
2022-08-12T21:11:11.860Z,100451.56
2022-08-12T21:15:23.893Z,100454.28
2022-08-12T21:19:52.870Z,100456.22
2022-08-12T21:23:58.848Z,100455.56
2022-08-12T21:28:01.072Z,100451.25
2022-08-12T21:32:39.975Z,100458.34
2022-08-12T21:36:34.309Z,100464.59
2022-08-12T21:40:36.907Z,100455.97
2022-08-12T21:45:43.932Z,100453.53
2022-08-12T21:49:04.984Z,100458.91
2022-08-12T21:53:10.500Z,100458.16
2022-08-12T21:57:15.703Z,100471.34
2022-08-12T22:01:22.798Z,100474.97
2022-08-12T22:05:44.658Z,100482.06
2022-08-12T22:09:46.319Z,100473.50
2022-08-12T22:14:02.368Z,100479.59
2022-08-12T22:18:09.824Z,100484.00
2022-08-12T22:22:12.409Z,100480.59
2022-08-12T22:26:16.004Z,100487.59
2022-08-12T22:31:09.372Z,100480.69
2022-08-12T22:35:55.533Z,100483.44
2022-08-12T22:39:52.521Z,100487.09
2022-08-12T22:44:13.409Z,100488.03
2022-08-12T22:48:18.852Z,100490.81
2022-08-12T22:52:28.220Z,100482.22
2022-08-12T22:56:35.101Z,100486.72
2022-08-12T23:00:38.341Z,100480.69
2022-08-12T23:04:39.967Z,100474.66
2022-08-12T23:08:44.808Z,100466.03
2022-08-12T23:13:05.244Z,100474.78
2022-08-12T23:17:07.527Z,100473.16
2022-08-12T23:22:03.631Z,100470.56
2022-08-12T23:25:54.515Z,100471.44
2022-08-12T23:30:17.524Z,100474.97
2022-08-12T23:34:20.667Z,100464.59
2022-08-12T23:38:34.405Z,100466.41
2022-08-12T23:42:36.014Z,100470.00
2022-08-12T23:46:38.621Z,100470.06
2022-08-12T23:50:42.150Z,100478.84
2022-08-12T23:54:47.133Z,100470.28
2022-08-12T23:59:01.113Z,100475.59
